Time;durP1;ratioP1;P1;durP2;ratioP2;P2;SDS_P1;SDS_P2;PMS_P1;PMS_P2;Temp;Humidity;BMP_temperature;BMP_pressure;BME280_temperature;BME280_humidity;BME280_pressure;Samples;Min_cycle;Max_cycle;Signal;HPM_P1;HPM_P2
2023/07/17 00:00:28;;;;;;;;;;;;;;;17.70;100.00;101424.94;10464002;28;19947;-58
2023/07/17 00:05:33;;;;;;;;;;;;;;;17.72;100.00;101430.94;10463659;28;19936;-59
2023/07/17 00:10:37;;;;;;;;;;;;;;;17.92;96.94;101434.72;10463425;28;19947;-58
2023/07/17 00:15:39;;;;;;;;;;;;;;;17.69;100.00;101433.00;10463101;28;20368;-58
2023/07/17 00:20:41;;;;;;;;;;;;;;;17.41;100.00;101443.88;10462968;28;19931;-58
2023/07/17 00:25:43;;;;;;;;;;;;;;;17.18;100.00;101444.78;10462831;28;20284;-58
2023/07/17 00:30:47;;;;;;;;;;;;;;;17.30;100.00;101443.88;10462666;28;20434;-59
2023/07/17 00:35:49;;;;;;;;;;;;;;;17.20;100.00;101449.00;10462315;28;19925;-59
2023/07/17 00:40:51;;;;;;;;;;;;;;;17.08;100.00;101445.47;10462088;28;20279;-59
2023/07/17 00:45:54;;;;;;;;;;;;;;;17.17;100.00;101451.88;10461556;28;19925;-59
2023/07/17 00:50:56;;;;;;;;;;;;;;;17.02;100.00;101458.31;10460636;28;19924;-60
2023/07/17 00:55:58;;;;;;;;;;;;;;;16.94;100.00;101452.75;10461587;28;19925;-59
2023/07/17 01:01:00;;;;;;;;;;;;;;;16.87;100.00;101447.06;10443736;28;19925;-59
2023/07/17 01:06:03;;;;;;;;;;;;;;;16.80;100.00;101448.44;10461200;28;19929;-60
2023/07/17 01:11:05;;;;;;;;;;;;;;;16.77;100.00;101461.88;10461339;28;19931;-59
2023/07/17 01:16:07;;;;;;;;;;;;;;;16.92;100.00;101468.72;10460961;28;19924;-59
2023/07/17 01:21:11;;;;;;;;;;;;;;;16.94;100.00;101476.53;10460743;28;20366;-59
2023/07/17 01:26:15;;;;;;;;;;;;;;;16.71;100.00;101465.84;10460624;28;19931;-59
2023/07/17 01:31:18;;;;;;;;;;;;;;;16.93;100.00;101464.25;10460248;28;19931;-59
2023/07/17 01:36:20;;;;;;;;;;;;;;;16.84;100.00;101481.63;10442436;28;19925;-59
2023/07/17 01:41:23;;;;;;;;;;;;;;;16.84;100.00;101478.97;10441864;28;19929;-59
2023/07/17 01:46:25;;;;;;;;;;;;;;;16.64;100.00;101470.72;10458605;28;20003;-59
2023/07/17 01:51:28;;;;;;;;;;;;;;;16.72;100.00;101467.50;10442023;28;19924;-60
2023/07/17 01:56:30;;;;;;;;;;;;;;;16.72;100.00;101470.16;10458343;28;19924;-60
2023/07/17 02:01:33;;;;;;;;;;;;;;;16.88;100.00;101476.03;10459367;28;19929;-59
2023/07/17 02:06:36;;;;;;;;;;;;;;;16.76;100.00;101470.75;10458894;28;20383;-60
2023/07/17 02:11:38;;;;;;;;;;;;;;;16.76;100.00;101473.41;10458708;28;20299;-59
2023/07/17 02:16:40;;;;;;;;;;;;;;;16.71;100.00;101469.31;10458642;28;19924;-60
2023/07/17 02:21:42;;;;;;;;;;;;;;;16.56;100.00;101473.06;10458335;28;19929;-60
2023/07/17 02:26:44;;;;;;;;;;;;;;;16.52;100.00;101475.09;10440695;28;19925;-60
2023/07/17 02:31:47;;;;;;;;;;;;;;;16.40;100.00;101465.38;10457877;28;20302;-60
2023/07/17 02:36:51;;;;;;;;;;;;;;;16.22;100.00;101464.88;10457905;28;19925;-60
2023/07/17 02:41:53;;;;;;;;;;;;;;;16.32;100.00;101473.00;10456356;28;19931;-59
2023/07/17 02:46:56;;;;;;;;;;;;;;;16.14;100.00;101485.75;10457510;28;19925;-59
2023/07/17 02:51:58;;;;;;;;;;;;;;;16.31;100.00;101484.56;10457271;28;19925;-59
2023/07/17 02:57:00;;;;;;;;;;;;;;;16.25;100.00;101487.63;10457082;28;19999;-59
2023/07/17 03:02:04;;;;;;;;;;;;;;;16.10;100.00;101500.09;10457186;28;19935;-60
2023/07/17 03:07:06;;;;;;;;;;;;;;;16.14;100.00;101501.59;10455608;28;19931;-59
2023/07/17 03:12:09;;;;;;;;;;;;;;;16.12;100.00;101506.97;10457004;28;20037;-59
2023/07/17 03:17:11;;;;;;;;;;;;;;;16.32;100.00;101508.22;10456795;28;20015;-59
2023/07/17 03:22:14;;;;;;;;;;;;;;;16.36;100.00;101511.50;10455519;28;20279;-59
2023/07/17 03:27:16;;;;;;;;;;;;;;;16.01;100.00;101513.97;10456703;28;19929;-60
2023/07/17 03:32:18;;;;;;;;;;;;;;;16.24;100.00;101513.19;10456463;28;19925;-60
2023/07/17 03:37:20;;;;;;;;;;;;;;;15.95;100.00;101513.44;10456337;28;19950;-60
2023/07/17 03:42:23;;;;;;;;;;;;;;;16.05;100.00;101515.41;10456040;28;19935;-60
2023/07/17 03:47:25;;;;;;;;;;;;;;;16.14;100.00;101517.44;10456201;28;20004;-60
2023/07/17 03:52:27;;;;;;;;;;;;;;;15.82;100.00;101514.34;10456194;28;19975;-60
2023/07/17 03:57:30;;;;;;;;;;;;;;;16.09;100.00;101519.56;10455862;28;19924;-60
2023/07/17 04:02:32;;;;;;;;;;;;;;;15.86;100.00;101527.25;10455873;28;19924;-60
2023/07/17 04:07:34;;;;;;;;;;;;;;;16.12;100.00;101529.88;10455825;28;19979;-60
2023/07/17 04:12:36;;;;;;;;;;;;;;;15.84;100.00;101537.06;10455952;28;19931;-60
2023/07/17 04:17:39;;;;;;;;;;;;;;;16.09;100.00;101527.47;10455487;28;20367;-60
2023/07/17 04:22:41;;;;;;;;;;;;;;;15.79;100.00;101537.38;10461278;28;19975;-60
2023/07/17 04:27:43;;;;;;;;;;;;;;;16.00;100.00;101536.03;10463051;28;19929;-61
2023/07/17 04:32:45;;;;;;;;;;;;;;;15.94;100.00;101545.22;10462643;28;19924;-60
2023/07/17 04:37:48;;;;;;;;;;;;;;;15.97;100.00;101551.13;10461395;28;19924;-60
2023/07/17 04:42:51;;;;;;;;;;;;;;;16.15;100.00;101550.81;10444566;28;19925;-61
2023/07/17 04:47:53;;;;;;;;;;;;;;;16.01;100.00;101550.94;10462043;28;19929;-61
2023/07/17 04:52:56;;;;;;;;;;;;;;;16.15;100.00;101564.03;10461820;28;19948;-60
2023/07/17 04:57:59;;;;;;;;;;;;;;;16.22;100.00;101565.28;10461594;28;20280;-60
2023/07/17 05:03:01;;;;;;;;;;;;;;;15.94;100.00;101564.53;10461717;28;19960;-60
2023/07/17 05:08:04;;;;;;;;;;;;;;;15.80;100.00;101577.81;10461198;28;20287;-61
2023/07/17 05:13:06;;;;;;;;;;;;;;;15.87;100.00;101584.41;10461235;28;19964;-60
2023/07/17 05:18:08;;;;;;;;;;;;;;;16.11;100.00;101583.69;10460867;28;19925;-60
2023/07/17 05:23:11;;;;;;;;;;;;;;;16.06;100.00;101580.50;10460781;28;19929;-61
2023/07/17 05:28:13;;;;;;;;;;;;;;;15.91;100.00;101582.41;10460741;28;19932;-60
2023/07/17 05:33:15;;;;;;;;;;;;;;;15.97;100.00;101590.75;10460229;28;20290;-60
2023/07/17 05:38:17;;;;;;;;;;;;;;;16.13;98.94;101595.81;10458942;28;20279;-60
2023/07/17 05:43:20;;;;;;;;;;;;;;;15.99;99.45;101593.28;10459744;28;19931;-59
2023/07/17 05:48:22;;;;;;;;;;;;;;;16.01;99.32;101594.03;10459760;28;19925;-60
2023/07/17 05:53:24;;;;;;;;;;;;;;;16.45;94.33;101608.63;10459389;28;19925;-60
2023/07/17 05:58:26;;;;;;;;;;;;;;;16.09;94.97;101618.13;10458247;28;19925;-60
2023/07/17 06:03:29;;;;;;;;;;;;;;;16.22;94.13;101610.19;10441575;28;20326;-60
2023/07/17 06:08:31;;;;;;;;;;;;;;;16.29;92.12;101611.47;10458964;28;19956;-61
2023/07/17 06:13:33;;;;;;;;;;;;;;;16.41;92.85;101619.50;10458797;28;19935;-60
2023/07/17 06:18:35;;;;;;;;;;;;;;;16.58;91.76;101623.66;10458537;28;20394;-60
2023/07/17 06:23:38;;;;;;;;;;;;;;;16.47;91.36;101642.88;10458246;28;20379;-60
2023/07/17 06:28:41;;;;;;;;;;;;;;;16.68;90.69;101636.09;10458100;28;19931;-60
2023/07/17 06:33:43;;;;;;;;;;;;;;;16.93;88.54;101629.13;10457935;28;19929;-60
2023/07/17 06:38:45;;;;;;;;;;;;;;;16.62;90.86;101636.50;10457960;28;19924;-60
2023/07/17 06:43:47;;;;;;;;;;;;;;;17.01;89.45;101650.59;10457153;28;19929;-61
2023/07/17 06:48:50;;;;;;;;;;;;;;;17.18;89.18;101656.44;10456427;28;19925;-60
2023/07/17 06:53:52;;;;;;;;;;;;;;;17.12;89.69;101657.75;10457229;28;20371;-60
2023/07/17 06:58:54;;;;;;;;;;;;;;;17.07;88.70;101650.13;10456083;28;19925;-60
2023/07/17 07:03:56;;;;;;;;;;;;;;;17.42;85.63;101661.78;10457328;28;19932;-61
2023/07/17 07:08:59;;;;;;;;;;;;;;;17.45;85.31;101674.81;10456921;28;19924;-61
2023/07/17 07:14:01;;;;;;;;;;;;;;;18.01;85.79;101676.91;10456728;28;20011;-61
2023/07/17 07:19:03;;;;;;;;;;;;;;;17.93;82.50;101672.16;10456864;28;19935;-61
2023/07/17 07:24:05;;;;;;;;;;;;;;;18.60;81.63;101675.94;10456592;28;19931;-60
2023/07/17 07:29:08;;;;;;;;;;;;;;;18.06;80.76;101687.16;10456499;28;20290;-60
2023/07/17 07:34:10;;;;;;;;;;;;;;;18.05;82.14;101704.84;10456301;28;19925;-61
2023/07/17 07:39:12;;;;;;;;;;;;;;;18.25;79.63;101697.22;10456643;28;19925;-61
2023/07/17 07:44:14;;;;;;;;;;;;;;;18.68;79.75;101699.22;10456036;28;19931;-60
2023/07/17 07:49:17;;;;;;;;;;;;;;;18.87;76.50;101699.50;10456050;28;19925;-60
2023/07/17 07:54:19;;;;;;;;;;;;;;;18.92;76.92;101712.41;10456739;28;19925;-60
2023/07/17 07:59:23;;;;;;;;;;;;;;;19.84;74.14;101722.81;10463961;28;19931;-61
2023/07/17 08:04:25;;;;;;;;;;;;;;;20.08;74.07;101721.75;10463835;28;19925;-61
2023/07/17 08:09:28;;;;;;;;;;;;;;;19.70;71.95;101726.53;10463675;28;19929;-61
2023/07/17 08:14:30;;;;;;;;;;;;;;;19.51;71.96;101721.88;10463575;28;19925;-61
2023/07/17 08:19:32;;;;;;;;;;;;;;;19.14;75.10;101740.75;10463368;28;19925;-60
2023/07/17 08:24:35;;;;;;;;;;;;;;;19.66;72.79;101735.75;10461848;28;20367;-61
2023/07/17 08:29:37;;;;;;;;;;;;;;;20.20;70.65;101718.06;10462975;28;20368;-61
2023/07/17 08:34:39;;;;;;;;;;;;;;;21.29;69.44;101716.69;10462625;28;20003;-61
2023/07/17 08:39:41;;;;;;;;;;;;;;;21.10;67.04;101728.13;10462629;28;19951;-61
2023/07/17 08:44:44;;;;;;;;;;;;;;;20.56;66.62;101740.72;10462059;28;20402;-61
2023/07/17 08:49:46;;;;;;;;;;;;;;;20.67;65.90;101726.50;10462092;28;19925;-61
2023/07/17 08:54:49;;;;;;;;;;;;;;;21.11;64.22;101727.13;10460708;28;19924;-61
2023/07/17 08:59:51;;;;;;;;;;;;;;;22.04;66.77;101726.91;10444125;28;20035;-61
2023/07/17 09:04:54;;;;;;;;;;;;;;;22.84;61.30;101726.66;10460118;28;20403;-61
2023/07/17 09:10:19;;;;;;;;;;;;;;;22.06;60.91;101725.78;10461197;28;20394;-61
2023/07/17 09:15:22;;;;;;;;;;;;;;;22.20;62.67;101727.19;10460962;28;20363;-61
2023/07/17 09:20:24;;;;;;;;;;;;;;;20.90;63.73;101737.84;10459778;28;19929;-61
2023/07/17 09:25:26;;;;;;;;;;;;;;;21.41;64.18;101730.72;10460947;28;20011;-61
2023/07/17 09:30:30;;;;;;;;;;;;;;;20.86;65.83;101736.41;10459372;28;20043;-60
2023/07/17 09:35:32;;;;;;;;;;;;;;;19.99;67.64;101745.47;10442535;28;19924;-61
2023/07/17 09:40:34;;;;;;;;;;;;;;;20.83;72.66;101749.13;10442490;28;19928;-61
2023/07/17 09:45:36;;;;;;;;;;;;;;;20.96;70.44;101737.31;10459719;28;20368;-60
2023/07/17 09:50:39;;;;;;;;;;;;;;;20.07;72.24;101742.16;10459879;28;20023;-60
2023/07/17 09:55:41;;;;;;;;;;;;;;;20.14;69.93;101739.81;10472630;22;19924;-62
2023/07/17 10:00:43;;;;;;;;;;;;;;;20.14;68.97;101742.47;10541454;28;20359;-62
2023/07/17 10:05:46;;;;;;;;;;;;;;;20.67;66.21;101734.50;10541236;28;20439;-63
2023/07/17 10:10:48;;;;;;;;;;;;;;;23.47;61.35;101734.81;10542258;28;19931;-62
2023/07/17 10:15:50;;;;;;;;;;;;;;;23.24;54.86;101733.56;10541872;28;20281;-62
2023/07/17 10:20:53;;;;;;;;;;;;;;;23.85;54.88;101727.53;10539991;28;19924;-64
2023/07/17 10:26:08;;;;;;;;;;;;;;;24.64;55.44;101730.34;10540703;28;19928;-63
2023/07/17 10:31:11;;;;;;;;;;;;;;;25.31;53.50;101735.06;10541314;28;19924;-64
2023/07/17 10:36:14;;;;;;;;;;;;;;;25.06;51.56;101718.84;10540031;28;20431;-64
2023/07/17 10:41:17;;;;;;;;;;;;;;;25.38;50.56;101736.06;10540046;28;19930;-64
2023/07/17 10:46:19;;;;;;;;;;;;;;;25.27;50.47;101725.66;10540952;28;19924;-64
2023/07/17 10:51:26;;;;;;;;;;;;;;;25.18;50.01;101732.78;10539508;28;19924;-65
2023/07/17 10:56:31;;;;;;;;;;;;;;;24.25;50.99;101734.25;10540365;28;19930;-65
2023/07/17 11:01:33;;;;;;;;;;;;;;;24.04;52.53;101742.59;10540459;28;19924;-64
2023/07/17 11:06:36;;;;;;;;;;;;;;;23.34;56.31;101732.50;10540349;28;19935;-64
2023/07/17 11:11:38;;;;;;;;;;;;;;;24.91;52.52;101736.53;10539010;28;20011;-64
2023/07/17 11:16:40;;;;;;;;;;;;;;;24.33;53.37;101735.31;10540202;28;20027;-65
2023/07/17 11:21:42;;;;;;;;;;;;;;;23.69;52.35;101733.53;10539963;28;19924;-65
2023/07/17 11:26:45;;;;;;;;;;;;;;;25.50;49.81;101721.38;10539791;28;20276;-65
2023/07/17 11:31:47;;;;;;;;;;;;;;;26.71;46.82;101733.31;10545444;28;19931;-65
2023/07/17 11:36:49;;;;;;;;;;;;;;;26.54;45.74;101724.44;10547017;28;19931;-65
2023/07/17 11:41:52;;;;;;;;;;;;;;;27.06;46.95;101718.56;10548115;28;20386;-65
2023/07/17 11:46:55;;;;;;;;;;;;;;;29.02;43.83;101711.78;10546771;28;20018;-65
2023/07/17 11:51:57;;;;;;;;;;;;;;;26.59;47.26;101707.81;10547078;28;20002;-65
2023/07/17 11:57:00;;;;;;;;;;;;;;;27.47;46.97;101708.66;10547340;28;19931;-65
2023/07/17 12:02:02;;;;;;;;;;;;;;;26.47;45.59;101715.38;10547745;28;19924;-64
2023/07/17 12:07:05;;;;;;;;;;;;;;;26.63;47.98;101719.91;10546160;28;20029;-65
2023/07/17 12:12:07;;;;;;;;;;;;;;;28.02;44.98;101710.28;10547345;28;19924;-65
2023/07/17 12:17:10;;;;;;;;;;;;;;;27.27;47.07;101701.03;10546672;28;20290;-65
2023/07/17 12:22:12;;;;;;;;;;;;;;;27.12;41.92;101695.56;10546594;28;19946;-65
2023/07/17 12:27:17;;;;;;;;;;;;;;;26.11;45.62;101699.69;10546561;28;19930;-65
2023/07/17 12:32:19;;;;;;;;;;;;;;;26.64;46.28;101702.78;10546104;28;19924;-65
2023/07/17 12:37:22;;;;;;;;;;;;;;;26.86;44.37;101693.13;10546042;28;19924;-64
2023/07/17 12:42:24;;;;;;;;;;;;;;;25.48;45.67;101696.56;10544056;28;19939;-64
2023/07/17 12:47:26;;;;;;;;;;;;;;;27.55;45.71;101695.97;10545558;28;20487;-65
2023/07/17 12:52:29;;;;;;;;;;;;;;;26.24;43.75;101691.09;10545382;28;20378;-64
2023/07/17 12:57:31;;;;;;;;;;;;;;;26.42;44.91;101698.94;10544903;28;19928;-64
2023/07/17 13:02:33;;;;;;;;;;;;;;;26.64;46.64;101711.66;10545013;28;20442;-65
2023/07/17 13:07:36;;;;;;;;;;;;;;;26.60;43.74;101704.13;10544880;28;19967;-65
2023/07/17 13:12:38;;;;;;;;;;;;;;;27.03;44.90;101689.38;10544468;28;19924;-64
2023/07/17 13:17:49;;;;;;;;;;;;;;;26.55;46.17;101704.63;10544430;28;20012;-65
2023/07/17 13:22:52;;;;;;;;;;;;;;;24.90;47.41;101706.25;10544191;28;19924;-64
2023/07/17 13:27:54;;;;;;;;;;;;;;;24.60;48.76;101718.28;10543978;28;20325;-64
2023/07/17 13:32:56;;;;;;;;;;;;;;;23.83;52.04;101752.75;10542679;28;20021;-63
2023/07/17 13:37:58;;;;;;;;;;;;;;;20.83;74.35;101775.75;10543650;28;19931;-64
2023/07/17 13:43:01;;;;;;;;;;;;;;;19.66;84.06;101802.16;10543349;28;20393;-65
2023/07/17 13:48:03;;;;;;;;;;;;;;;19.44;100.00;101797.72;10543448;28;19924;-67
2023/07/17 13:53:05;;;;;;;;;;;;;;;19.88;88.96;101793.31;10541869;28;19927;-67
2023/07/17 13:58:09;;;;;;;;;;;;;;;20.05;91.39;101797.25;10542576;28;20362;-67
2023/07/17 14:03:17;;;;;;;;;;;;;;;20.27;92.88;101804.31;10542789;28;19924;-66
2023/07/17 14:08:19;;;;;;;;;;;;;;;21.65;90.70;101796.16;10541149;28;19924;-66
2023/07/17 14:13:21;;;;;;;;;;;;;;;23.15;76.07;101791.38;10542118;28;20346;-66
2023/07/17 14:18:24;;;;;;;;;;;;;;;22.05;79.97;101798.75;10540859;28;19930;-66
2023/07/17 14:23:26;;;;;;;;;;;;;;;21.97;80.50;101806.63;10541339;28;19928;-66
2023/07/17 14:28:29;;;;;;;;;;;;;;;22.49;76.02;101798.38;10540328;28;20379;-66
2023/07/17 14:33:31;;;;;;;;;;;;;;;21.61;78.23;101803.59;10540247;28;19930;-65
2023/07/17 14:38:36;;;;;;;;;;;;;;;21.24;75.35;101822.78;10541436;28;19994;-65
2023/07/17 14:43:38;;;;;;;;;;;;;;;20.65;84.01;101831.41;10541053;28;19924;-65
2023/07/17 14:48:40;;;;;;;;;;;;;;;20.40;82.32;101831.56;10540938;28;20318;-65
2023/07/17 14:53:43;;;;;;;;;;;;;;;21.01;75.97;101826.56;10539737;28;19924;-64
2023/07/17 14:58:46;;;;;;;;;;;;;;;20.23;79.50;101826.81;10540233;28;19970;-64
2023/07/17 15:03:48;;;;;;;;;;;;;;;20.09;81.58;101824.44;10540075;28;20295;-64
2023/07/17 15:08:50;;;;;;;;;;;;;;;20.02;79.98;101821.44;10539096;28;20325;-63
2023/07/17 15:13:52;;;;;;;;;;;;;;;19.52;75.77;101819.19;10540368;28;19924;-63
2023/07/17 15:18:57;;;;;;;;;;;;;;;20.60;75.03;101821.94;10539273;28;20285;-63
2023/07/17 15:23:59;;;;;;;;;;;;;;;22.92;69.23;101821.06;10539957;28;19931;-64
2023/07/17 15:29:01;;;;;;;;;;;;;;;21.38;67.35;101831.38;10539991;28;19931;-64
2023/07/17 15:34:03;;;;;;;;;;;;;;;20.67;69.00;101829.44;10539818;28;19930;-63
2023/07/17 15:39:06;;;;;;;;;;;;;;;22.03;63.97;101818.56;10538571;28;19967;-64
2023/07/17 15:44:08;;;;;;;;;;;;;;;22.13;61.68;101814.06;10539648;28;19924;-63
2023/07/17 15:49:10;;;;;;;;;;;;;;;23.14;59.53;101816.41;10539727;28;19924;-64
2023/07/17 15:54:12;;;;;;;;;;;;;;;22.82;57.89;101813.06;10539386;28;19931;-64
2023/07/17 15:59:14;;;;;;;;;;;;;;;22.59;59.71;101798.34;10539067;28;19946;-64
2023/07/17 16:04:17;;;;;;;;;;;;;;;23.49;59.97;101812.19;10539409;28;19924;-64
2023/07/17 16:09:19;;;;;;;;;;;;;;;23.59;54.46;101820.13;10539043;28;20371;-66
2023/07/17 16:14:22;;;;;;;;;;;;;;;22.08;57.32;101817.16;10539272;28;19924;-65
2023/07/17 16:19:24;;;;;;;;;;;;;;;22.79;56.92;101813.34;10545927;28;19924;-65
2023/07/17 16:24:26;;;;;;;;;;;;;;;23.44;55.43;101814.47;10546500;28;19928;-65
2023/07/17 16:29:28;;;;;;;;;;;;;;;23.09;56.96;101807.97;10546341;28;20263;-65
2023/07/17 16:34:31;;;;;;;;;;;;;;;23.13;57.54;101801.34;10546183;28;19924;-65
2023/07/17 16:39:33;;;;;;;;;;;;;;;23.54;55.84;101809.91;10545875;28;19947;-65
2023/07/17 16:44:37;;;;;;;;;;;;;;;23.25;55.74;101807.34;10545809;28;20286;-65
2023/07/17 16:49:39;;;;;;;;;;;;;;;23.25;56.99;101815.34;10544336;28;19959;-65
2023/07/17 16:54:41;;;;;;;;;;;;;;;22.54;54.73;101804.13;10545438;28;20012;-64
2023/07/17 16:59:43;;;;;;;;;;;;;;;23.34;56.05;101811.81;10545099;28;19932;-65
2023/07/17 17:04:46;;;;;;;;;;;;;;;23.02;56.52;101812.19;10545035;28;19943;-65
2023/07/17 17:09:49;;;;;;;;;;;;;;;21.95;57.35;101821.91;10544872;28;19930;-65
2023/07/17 17:14:53;;;;;;;;;;;;;;;22.21;56.98;101818.72;10544509;28;20305;-65
2023/07/17 17:19:55;;;;;;;;;;;;;;;21.65;58.44;101828.13;10544371;28;19928;-65
2023/07/17 17:24:58;;;;;;;;;;;;;;;21.86;58.44;101825.41;10544432;28;19924;-66
2023/07/17 17:30:00;;;;;;;;;;;;;;;21.69;59.38;101830.41;10543961;28;19931;-65
2023/07/17 17:35:03;;;;;;;;;;;;;;;21.34;59.85;101842.28;10542526;28;19931;-65
2023/07/17 17:40:08;;;;;;;;;;;;;;;21.16;60.06;101854.53;10543559;28;20092;-65
2023/07/17 17:45:12;;;;;;;;;;;;;;;20.80;60.25;101863.84;10543365;28;19956;-65
2023/07/17 17:50:16;;;;;;;;;;;;;;;20.84;61.64;101858.13;10543250;28;20011;-65
2023/07/17 17:55:18;;;;;;;;;;;;;;;20.97;60.63;101861.44;10542740;28;20378;-65
2023/07/17 18:00:21;;;;;;;;;;;;;;;20.66;59.91;101857.00;10542600;28;19924;-66
2023/07/17 18:05:25;;;;;;;;;;;;;;;20.25;61.38;101859.44;10542601;28;19924;-65
2023/07/17 18:10:27;;;;;;;;;;;;;;;20.40;61.21;101860.81;10542320;28;19937;-65
2023/07/17 18:15:29;;;;;;;;;;;;;;;20.32;61.53;101871.25;10542183;28;20259;-66
2023/07/17 18:20:33;;;;;;;;;;;;;;;20.11;61.76;101873.84;10542022;28;19924;-65
2023/07/17 18:25:35;;;;;;;;;;;;;;;20.25;61.11;101874.56;10540976;28;19936;-65
2023/07/17 18:30:38;;;;;;;;;;;;;;;20.15;60.98;101879.78;10541510;28;20367;-65
2023/07/17 18:35:40;;;;;;;;;;;;;;;19.79;61.76;101884.44;10541412;28;20368;-65
2023/07/17 18:40:42;;;;;;;;;;;;;;;19.79;61.87;101895.06;10540709;28;19938;-65
2023/07/17 18:45:45;;;;;;;;;;;;;;;19.48;61.13;101905.38;10540999;28;20286;-65
2023/07/17 18:50:47;;;;;;;;;;;;;;;19.55;61.92;101911.06;10541037;28;20006;-65
2023/07/17 18:55:50;;;;;;;;;;;;;;;19.45;60.70;101914.44;10540553;28;19924;-64
2023/07/17 19:00:52;;;;;;;;;;;;;;;19.21;61.82;101911.00;10540599;28;19924;-65
2023/07/17 19:05:55;;;;;;;;;;;;;;;19.46;61.47;101923.25;10540588;28;20015;-65
2023/07/17 19:11:01;;;;;;;;;;;;;;;19.05;63.52;101917.50;10540322;28;19924;-65
2023/07/17 19:16:03;;;;;;;;;;;;;;;19.08;64.73;101919.91;10540314;28;19924;-65
2023/07/17 19:21:05;;;;;;;;;;;;;;;18.57;64.85;101930.75;10538845;28;20286;-65
2023/07/17 19:26:07;;;;;;;;;;;;;;;18.63;66.07;101934.78;10539036;28;19924;-65
2023/07/17 19:31:10;;;;;;;;;;;;;;;18.54;66.71;101942.47;10540100;28;20015;-65
2023/07/17 19:36:12;;;;;;;;;;;;;;;18.44;65.35;101941.44;10539763;28;19969;-65
2023/07/17 19:41:15;;;;;;;;;;;;;;;18.15;67.70;101960.25;10539673;28;20275;-65
2023/07/17 19:46:17;;;;;;;;;;;;;;;18.24;67.23;101968.50;10539520;28;20011;-65
2023/07/17 19:51:20;;;;;;;;;;;;;;;17.79;70.76;101977.78;10543896;28;19999;-65
2023/07/17 19:56:23;;;;;;;;;;;;;;;17.43;74.67;101989.06;10547558;28;19927;-65
2023/07/17 20:01:26;;;;;;;;;;;;;;;17.27;77.68;101994.56;10548150;28;19971;-65
2023/07/17 20:06:28;;;;;;;;;;;;;;;16.90;77.90;101999.63;10547469;28;20366;-65
2023/07/17 20:11:32;;;;;;;;;;;;;;;17.01;79.17;101996.28;10547040;28;20019;-65
2023/07/17 20:16:35;;;;;;;;;;;;;;;16.77;83.01;102001.34;10546975;28;19957;-65
2023/07/17 20:21:38;;;;;;;;;;;;;;;16.36;84.58;102008.31;10546703;28;19935;-65
2023/07/17 20:26:40;;;;;;;;;;;;;;;16.38;85.81;102003.78;10546556;28;19930;-65
2023/07/17 20:31:43;;;;;;;;;;;;;;;16.30;87.63;102006.91;10546286;28;19993;-65
2023/07/17 20:36:45;;;;;;;;;;;;;;;16.19;88.22;102006.72;10546225;28;19924;-65
2023/07/17 20:41:47;;;;;;;;;;;;;;;16.20;87.57;102004.94;10545818;28;20335;-65
2023/07/17 20:46:49;;;;;;;;;;;;;;;16.03;89.46;102019.19;10545774;28;19960;-65
2023/07/17 20:51:52;;;;;;;;;;;;;;;15.95;88.87;102015.22;10545497;28;19998;-65
2023/07/17 20:56:54;;;;;;;;;;;;;;;15.80;89.86;102018.75;10545002;28;19924;-65
2023/07/17 21:02:01;;;;;;;;;;;;;;;15.76;90.64;102018.09;10544682;28;19928;-65
2023/07/17 21:07:06;;;;;;;;;;;;;;;15.86;92.24;102021.06;10544871;28;20384;-65
2023/07/17 21:12:09;;;;;;;;;;;;;;;15.71;92.50;102035.16;10543666;28;19925;-65
2023/07/17 21:17:11;;;;;;;;;;;;;;;15.36;96.62;102030.97;10543268;28;20363;-65
2023/07/17 21:22:14;;;;;;;;;;;;;;;15.51;95.80;102026.59;10544343;28;19956;-65
2023/07/17 21:27:17;;;;;;;;;;;;;;;15.31;96.39;102029.56;10544361;28;19935;-64
2023/07/17 21:32:19;;;;;;;;;;;;;;;15.32;96.40;102032.09;10543822;28;20461;-65
2023/07/17 21:37:21;;;;;;;;;;;;;;;15.11;97.58;102035.97;10543971;28;19924;-64
2023/07/17 21:42:24;;;;;;;;;;;;;;;15.07;99.14;102035.31;10543377;28;19973;-64
2023/07/17 21:47:26;;;;;;;;;;;;;;;15.04;98.47;102028.41;10543369;28;20157;-64
2023/07/17 21:52:28;;;;;;;;;;;;;;;14.96;100.00;102033.28;10543284;28;20065;-65
2023/07/17 21:57:31;;;;;;;;;;;;;;;14.90;100.00;102030.97;10542537;28;19930;-65
2023/07/17 22:02:33;;;;;;;;;;;;;;;14.83;100.00;102030.47;10542924;28;19924;-64
2023/07/17 22:07:35;;;;;;;;;;;;;;;15.22;98.71;102033.56;10542540;28;20401;-65
2023/07/17 22:12:37;;;;;;;;;;;;;;;14.93;100.00;102043.13;10534918;22;20321;-63
2023/07/17 22:17:41;;;;;;;;;;;;;;;14.96;100.00;102042.97;10500104;28;19924;-63
2023/07/17 22:22:44;;;;;;;;;;;;;;;14.79;100.00;102050.03;10499997;28;19928;-63
2023/07/17 22:27:46;;;;;;;;;;;;;;;14.78;100.00;102048.34;10499949;28;20374;-63
2023/07/17 22:32:49;;;;;;;;;;;;;;;14.63;100.00;102043.91;10499726;28;19936;-63
2023/07/17 22:37:51;;;;;;;;;;;;;;;14.63;100.00;102047.38;10499571;28;19964;-63
2023/07/17 22:42:53;;;;;;;;;;;;;;;14.75;100.00;102048.50;10499360;28;19931;-63
2023/07/17 22:47:55;;;;;;;;;;;;;;;14.81;100.00;102047.28;10499121;28;20363;-63
2023/07/17 22:52:58;;;;;;;;;;;;;;;14.85;100.00;102054.97;10498935;28;19924;-63
2023/07/17 22:58:00;;;;;;;;;;;;;;;14.81;100.00;102056.06;10498887;28;19931;-62
2023/07/17 23:03:02;;;;;;;;;;;;;;;14.68;100.00;102047.16;10498917;28;19925;-63
2023/07/17 23:08:07;;;;;;;;;;;;;;;14.81;100.00;102053.44;10498657;28;19932;-63
2023/07/17 23:13:09;;;;;;;;;;;;;;;14.93;100.00;102045.75;10498246;28;19932;-63
2023/07/17 23:18:12;;;;;;;;;;;;;;;14.83;100.00;102038.38;10498458;28;19925;-63
2023/07/17 23:23:15;;;;;;;;;;;;;;;14.76;100.00;102044.94;10498199;28;20252;-62
2023/07/17 23:28:17;;;;;;;;;;;;;;;14.78;100.00;102040.44;10497866;28;19982;-62
2023/07/17 23:33:19;;;;;;;;;;;;;;;15.07;100.00;102037.94;10498088;28;19928;-63
2023/07/17 23:38:22;;;;;;;;;;;;;;;14.94;100.00;102034.28;10498192;28;19930;-63
2023/07/17 23:43:24;;;;;;;;;;;;;;;15.33;94.75;102023.25;10480305;28;19924;-63
2023/07/17 23:48:26;;;;;;;;;;;;;;;15.30;94.46;102041.03;10497826;28;19931;-63
2023/07/17 23:53:29;;;;;;;;;;;;;;;15.42;90.16;102033.28;10497703;28;20371;-63
2023/07/17 23:58:31;;;;;;;;;;;;;;;15.38;93.36;102029.13;10497541;28;19930;-63
